sensor_id;sensor_type;location;lat;lon;timestamp;temperature;humidity
18260;DHT22;9256;52.236;5.712;2023-07-20T00:00:10;15.80;99.90
18260;DHT22;9256;52.236;5.712;2023-07-20T00:02:38;15.90;99.90
18260;DHT22;9256;52.236;5.712;2023-07-20T00:05:05;15.80;99.90
18260;DHT22;9256;52.236;5.712;2023-07-20T00:07:32;15.80;99.90
18260;DHT22;9256;52.236;5.712;2023-07-20T00:09:59;15.70;99.90
18260;DHT22;9256;52.236;5.712;2023-07-20T00:12:28;15.70;99.90
18260;DHT22;9256;52.236;5.712;2023-07-20T00:14:54;15.80;99.90
18260;DHT22;9256;52.236;5.712;2023-07-20T00:17:21;15.70;99.90
18260;DHT22;9256;52.236;5.712;2023-07-20T00:19:48;15.70;99.90
18260;DHT22;9256;52.236;5.712;2023-07-20T00:22:15;15.70;99.90
18260;DHT22;9256;52.236;5.712;2023-07-20T00:24:42;15.60;99.90
18260;DHT22;9256;52.236;5.712;2023-07-20T00:27:09;15.50;99.90
18260;DHT22;9256;52.236;5.712;2023-07-20T00:29:37;15.40;99.90
18260;DHT22;9256;52.236;5.712;2023-07-20T00:32:05;15.40;99.90
18260;DHT22;9256;52.236;5.712;2023-07-20T00:34:32;15.40;99.90
18260;DHT22;9256;52.236;5.712;2023-07-20T00:36:59;15.40;99.90
18260;DHT22;9256;52.236;5.712;2023-07-20T00:39:26;15.40;99.90
18260;DHT22;9256;52.236;5.712;2023-07-20T00:41:53;15.40;99.90
18260;DHT22;9256;52.236;5.712;2023-07-20T00:44:19;15.40;99.90
18260;DHT22;9256;52.236;5.712;2023-07-20T00:46:48;15.40;99.90
18260;DHT22;9256;52.236;5.712;2023-07-20T00:49:15;15.40;99.90
18260;DHT22;9256;52.236;5.712;2023-07-20T00:51:47;15.40;99.90
18260;DHT22;9256;52.236;5.712;2023-07-20T00:54:14;15.40;99.90
18260;DHT22;9256;52.236;5.712;2023-07-20T00:56:42;15.40;99.90
18260;DHT22;9256;52.236;5.712;2023-07-20T00:59:09;15.30;99.90
18260;DHT22;9256;52.236;5.712;2023-07-20T01:01:37;15.30;99.90
18260;DHT22;9256;52.236;5.712;2023-07-20T01:04:05;15.20;99.90
18260;DHT22;9256;52.236;5.712;2023-07-20T01:06:39;15.20;99.90
18260;DHT22;9256;52.236;5.712;2023-07-20T01:09:13;15.10;99.90
18260;DHT22;9256;52.236;5.712;2023-07-20T01:11:46;15.10;99.90
18260;DHT22;9256;52.236;5.712;2023-07-20T01:14:17;15.00;99.90
18260;DHT22;9256;52.236;5.712;2023-07-20T01:16:44;15.00;99.90
18260;DHT22;9256;52.236;5.712;2023-07-20T01:19:13;15.00;99.90
18260;DHT22;9256;52.236;5.712;2023-07-20T01:21:53;15.00;99.90
18260;DHT22;9256;52.236;5.712;2023-07-20T01:24:47;15.10;99.90
18260;DHT22;9256;52.236;5.712;2023-07-20T01:27:46;15.20;99.90
18260;DHT22;9256;52.236;5.712;2023-07-20T01:30:36;15.20;99.90
18260;DHT22;9256;52.236;5.712;2023-07-20T01:33:08;15.20;99.90
18260;DHT22;9256;52.236;5.712;2023-07-20T01:35:36;15.20;99.90
18260;DHT22;9256;52.236;5.712;2023-07-20T01:38:05;15.30;99.90
18260;DHT22;9256;52.236;5.712;2023-07-20T01:40:32;15.30;99.90
18260;DHT22;9256;52.236;5.712;2023-07-20T01:42:59;15.30;99.90
18260;DHT22;9256;52.236;5.712;2023-07-20T01:45:26;15.20;99.90
18260;DHT22;9256;52.236;5.712;2023-07-20T01:47:53;15.20;99.90
18260;DHT22;9256;52.236;5.712;2023-07-20T01:50:21;15.20;99.90
18260;DHT22;9256;52.236;5.712;2023-07-20T01:52:49;15.20;99.90
18260;DHT22;9256;52.236;5.712;2023-07-20T01:55:15;15.10;99.90
18260;DHT22;9256;52.236;5.712;2023-07-20T01:57:42;15.00;99.90
18260;DHT22;9256;52.236;5.712;2023-07-20T02:00:10;14.90;99.90
18260;DHT22;9256;52.236;5.712;2023-07-20T02:02:37;14.80;99.90
18260;DHT22;9256;52.236;5.712;2023-07-20T02:05:04;14.80;99.90
18260;DHT22;9256;52.236;5.712;2023-07-20T02:07:33;14.70;99.90
18260;DHT22;9256;52.236;5.712;2023-07-20T02:10:00;14.70;99.90
18260;DHT22;9256;52.236;5.712;2023-07-20T02:12:27;14.70;99.90
18260;DHT22;9256;52.236;5.712;2023-07-20T02:14:53;14.60;99.90
18260;DHT22;9256;52.236;5.712;2023-07-20T02:17:20;14.50;99.90
18260;DHT22;9256;52.236;5.712;2023-07-20T02:19:50;14.50;99.90
18260;DHT22;9256;52.236;5.712;2023-07-20T02:22:17;14.50;99.90
18260;DHT22;9256;52.236;5.712;2023-07-20T02:24:46;14.50;99.90
18260;DHT22;9256;52.236;5.712;2023-07-20T02:27:13;14.40;99.90
18260;DHT22;9256;52.236;5.712;2023-07-20T02:29:41;14.50;99.90
18260;DHT22;9256;52.236;5.712;2023-07-20T02:32:08;14.40;99.90
18260;DHT22;9256;52.236;5.712;2023-07-20T02:34:36;14.40;99.90
18260;DHT22;9256;52.236;5.712;2023-07-20T02:37:04;14.30;99.90
18260;DHT22;9256;52.236;5.712;2023-07-20T02:39:31;14.30;99.90
18260;DHT22;9256;52.236;5.712;2023-07-20T02:41:59;14.30;99.90
18260;DHT22;9256;52.236;5.712;2023-07-20T02:44:26;14.30;99.90
18260;DHT22;9256;52.236;5.712;2023-07-20T02:46:53;14.40;99.90
18260;DHT22;9256;52.236;5.712;2023-07-20T02:49:20;14.50;99.90
18260;DHT22;9256;52.236;5.712;2023-07-20T02:51:47;14.50;99.90
18260;DHT22;9256;52.236;5.712;2023-07-20T02:54:14;14.50;99.90
18260;DHT22;9256;52.236;5.712;2023-07-20T02:56:41;14.40;99.90
18260;DHT22;9256;52.236;5.712;2023-07-20T02:59:10;14.30;99.90
18260;DHT22;9256;52.236;5.712;2023-07-20T03:01:37;14.30;99.90
18260;DHT22;9256;52.236;5.712;2023-07-20T03:04:04;14.10;99.90
18260;DHT22;9256;52.236;5.712;2023-07-20T03:06:31;14.10;99.90
18260;DHT22;9256;52.236;5.712;2023-07-20T03:09:01;14.10;99.90
18260;DHT22;9256;52.236;5.712;2023-07-20T03:11:28;14.00;99.90
18260;DHT22;9256;52.236;5.712;2023-07-20T03:13:55;14.00;99.90
18260;DHT22;9256;52.236;5.712;2023-07-20T03:16:24;13.90;99.90
18260;DHT22;9256;52.236;5.712;2023-07-20T03:18:52;13.90;99.90
18260;DHT22;9256;52.236;5.712;2023-07-20T03:21:19;13.80;99.90
18260;DHT22;9256;52.236;5.712;2023-07-20T03:23:46;13.80;99.90
18260;DHT22;9256;52.236;5.712;2023-07-20T03:26:13;13.70;99.90
18260;DHT22;9256;52.236;5.712;2023-07-20T03:28:41;13.70;99.90
18260;DHT22;9256;52.236;5.712;2023-07-20T03:31:07;13.60;99.90
18260;DHT22;9256;52.236;5.712;2023-07-20T03:33:36;13.60;99.90
18260;DHT22;9256;52.236;5.712;2023-07-20T03:36:03;13.60;99.90
18260;DHT22;9256;52.236;5.712;2023-07-20T03:38:30;13.50;99.90
18260;DHT22;9256;52.236;5.712;2023-07-20T03:41:00;13.50;99.90
18260;DHT22;9256;52.236;5.712;2023-07-20T03:43:28;13.50;99.90
18260;DHT22;9256;52.236;5.712;2023-07-20T03:45:55;13.50;99.90
18260;DHT22;9256;52.236;5.712;2023-07-20T03:48:24;13.50;99.90
18260;DHT22;9256;52.236;5.712;2023-07-20T03:50:54;13.40;99.90
18260;DHT22;9256;52.236;5.712;2023-07-20T03:53:21;13.40;99.90
18260;DHT22;9256;52.236;5.712;2023-07-20T03:55:48;13.40;99.90
18260;DHT22;9256;52.236;5.712;2023-07-20T03:58:16;13.40;99.90
18260;DHT22;9256;52.236;5.712;2023-07-20T04:00:47;13.40;99.90
18260;DHT22;9256;52.236;5.712;2023-07-20T04:03:14;13.40;99.90
18260;DHT22;9256;52.236;5.712;2023-07-20T04:05:41;13.30;99.90
18260;DHT22;9256;52.236;5.712;2023-07-20T04:08:10;13.40;99.90
18260;DHT22;9256;52.236;5.712;2023-07-20T04:10:38;13.30;99.90
18260;DHT22;9256;52.236;5.712;2023-07-20T04:13:05;13.30;99.90
18260;DHT22;9256;52.236;5.712;2023-07-20T04:15:32;13.40;99.90
18260;DHT22;9256;52.236;5.712;2023-07-20T04:17:59;13.30;99.90
18260;DHT22;9256;52.236;5.712;2023-07-20T04:20:26;13.40;99.90
18260;DHT22;9256;52.236;5.712;2023-07-20T04:22:53;13.40;99.90
18260;DHT22;9256;52.236;5.712;2023-07-20T04:25:21;13.40;99.90
18260;DHT22;9256;52.236;5.712;2023-07-20T04:27:48;13.40;99.90
18260;DHT22;9256;52.236;5.712;2023-07-20T04:30:20;13.50;99.90
18260;DHT22;9256;52.236;5.712;2023-07-20T04:32:48;13.40;99.90
18260;DHT22;9256;52.236;5.712;2023-07-20T04:35:44;13.40;99.90
18260;DHT22;9256;52.236;5.712;2023-07-20T04:38:05;13.50;99.90
18260;DHT22;9256;52.236;5.712;2023-07-20T04:40:33;13.50;99.90
18260;DHT22;9256;52.236;5.712;2023-07-20T04:43:00;13.50;99.90
18260;DHT22;9256;52.236;5.712;2023-07-20T04:45:27;13.50;99.90
18260;DHT22;9256;52.236;5.712;2023-07-20T04:47:54;13.60;99.90
18260;DHT22;9256;52.236;5.712;2023-07-20T04:50:21;13.60;99.90
18260;DHT22;9256;52.236;5.712;2023-07-20T04:52:49;13.70;99.90
18260;DHT22;9256;52.236;5.712;2023-07-20T04:55:16;13.60;99.90
18260;DHT22;9256;52.236;5.712;2023-07-20T04:57:45;13.70;99.90
18260;DHT22;9256;52.236;5.712;2023-07-20T05:00:13;13.80;99.90
18260;DHT22;9256;52.236;5.712;2023-07-20T05:02:40;13.90;99.90
18260;DHT22;9256;52.236;5.712;2023-07-20T05:05:07;13.90;99.90
18260;DHT22;9256;52.236;5.712;2023-07-20T05:07:34;14.00;99.90
18260;DHT22;9256;52.236;5.712;2023-07-20T05:10:01;14.10;99.90
18260;DHT22;9256;52.236;5.712;2023-07-20T05:12:28;14.20;99.90
18260;DHT22;9256;52.236;5.712;2023-07-20T05:14:56;14.30;99.90
18260;DHT22;9256;52.236;5.712;2023-07-20T05:17:23;14.30;99.90
18260;DHT22;9256;52.236;5.712;2023-07-20T05:19:51;14.30;99.90
18260;DHT22;9256;52.236;5.712;2023-07-20T05:22:18;14.30;99.90
18260;DHT22;9256;52.236;5.712;2023-07-20T05:25:01;14.30;99.90
18260;DHT22;9256;52.236;5.712;2023-07-20T05:27:28;14.30;99.90
18260;DHT22;9256;52.236;5.712;2023-07-20T05:29:55;14.20;99.90
18260;DHT22;9256;52.236;5.712;2023-07-20T05:32:22;14.30;99.90
18260;DHT22;9256;52.236;5.712;2023-07-20T05:34:51;14.40;99.90
18260;DHT22;9256;52.236;5.712;2023-07-20T05:37:18;14.60;99.90
18260;DHT22;9256;52.236;5.712;2023-07-20T05:39:45;14.70;99.90
18260;DHT22;9256;52.236;5.712;2023-07-20T05:42:13;14.80;99.90
18260;DHT22;9256;52.236;5.712;2023-07-20T05:44:41;14.90;99.90
18260;DHT22;9256;52.236;5.712;2023-07-20T05:47:08;15.10;99.90
18260;DHT22;9256;52.236;5.712;2023-07-20T05:49:35;15.20;99.90
18260;DHT22;9256;52.236;5.712;2023-07-20T05:52:02;15.20;99.90
18260;DHT22;9256;52.236;5.712;2023-07-20T05:54:29;15.20;99.90
18260;DHT22;9256;52.236;5.712;2023-07-20T05:56:56;15.30;99.90
18260;DHT22;9256;52.236;5.712;2023-07-20T05:59:24;15.40;99.90
18260;DHT22;9256;52.236;5.712;2023-07-20T06:01:53;15.50;99.90
18260;DHT22;9256;52.236;5.712;2023-07-20T06:04:20;15.70;99.90
18260;DHT22;9256;52.236;5.712;2023-07-20T06:06:47;15.80;99.90
18260;DHT22;9256;52.236;5.712;2023-07-20T06:09:14;15.80;99.90
18260;DHT22;9256;52.236;5.712;2023-07-20T06:11:41;15.90;99.90
18260;DHT22;9256;52.236;5.712;2023-07-20T06:14:08;16.00;99.90
18260;DHT22;9256;52.236;5.712;2023-07-20T06:16:36;16.20;99.90
18260;DHT22;9256;52.236;5.712;2023-07-20T06:19:03;16.30;99.90
18260;DHT22;9256;52.236;5.712;2023-07-20T06:21:30;16.50;99.90
18260;DHT22;9256;52.236;5.712;2023-07-20T06:23:57;16.30;99.90
18260;DHT22;9256;52.236;5.712;2023-07-20T06:26:24;16.40;99.90
18260;DHT22;9256;52.236;5.712;2023-07-20T06:28:51;16.30;99.90
18260;DHT22;9256;52.236;5.712;2023-07-20T06:31:18;16.50;99.90
18260;DHT22;9256;52.236;5.712;2023-07-20T06:33:47;16.60;99.90
18260;DHT22;9256;52.236;5.712;2023-07-20T06:36:15;16.70;99.90
18260;DHT22;9256;52.236;5.712;2023-07-20T06:38:42;17.00;99.90
18260;DHT22;9256;52.236;5.712;2023-07-20T06:41:09;17.30;99.90
18260;DHT22;9256;52.236;5.712;2023-07-20T06:43:36;17.50;99.90
18260;DHT22;9256;52.236;5.712;2023-07-20T06:46:03;17.60;99.90
18260;DHT22;9256;52.236;5.712;2023-07-20T06:48:30;17.40;99.90
18260;DHT22;9256;52.236;5.712;2023-07-20T06:50:58;17.30;99.90
18260;DHT22;9256;52.236;5.712;2023-07-20T06:53:25;17.20;99.90
18260;DHT22;9256;52.236;5.712;2023-07-20T06:55:52;17.00;99.90
18260;DHT22;9256;52.236;5.712;2023-07-20T06:58:19;17.20;99.90
18260;DHT22;9256;52.236;5.712;2023-07-20T07:00:47;17.40;99.90
18260;DHT22;9256;52.236;5.712;2023-07-20T07:03:14;17.60;99.90
18260;DHT22;9256;52.236;5.712;2023-07-20T07:05:41;17.90;99.90
18260;DHT22;9256;52.236;5.712;2023-07-20T07:08:09;17.80;99.90
18260;DHT22;9256;52.236;5.712;2023-07-20T07:10:37;17.70;99.90
18260;DHT22;9256;52.236;5.712;2023-07-20T07:13:04;17.90;99.90
18260;DHT22;9256;52.236;5.712;2023-07-20T07:15:31;17.80;99.90
18260;DHT22;9256;52.236;5.712;2023-07-20T07:17:58;17.60;99.90
18260;DHT22;9256;52.236;5.712;2023-07-20T07:20:26;17.60;99.90
18260;DHT22;9256;52.236;5.712;2023-07-20T07:22:53;17.40;99.90
18260;DHT22;9256;52.236;5.712;2023-07-20T07:25:22;17.40;99.90
18260;DHT22;9256;52.236;5.712;2023-07-20T07:27:51;17.20;99.90
18260;DHT22;9256;52.236;5.712;2023-07-20T07:30:18;16.70;99.90
18260;DHT22;9256;52.236;5.712;2023-07-20T07:32:45;16.60;99.90
18260;DHT22;9256;52.236;5.712;2023-07-20T07:35:12;16.80;99.90
18260;DHT22;9256;52.236;5.712;2023-07-20T07:37:39;17.20;99.90
18260;DHT22;9256;52.236;5.712;2023-07-20T07:40:08;17.40;99.90
18260;DHT22;9256;52.236;5.712;2023-07-20T07:42:37;17.50;99.90
18260;DHT22;9256;52.236;5.712;2023-07-20T07:45:05;17.70;99.90
18260;DHT22;9256;52.236;5.712;2023-07-20T07:47:32;18.10;99.90
18260;DHT22;9256;52.236;5.712;2023-07-20T07:49:59;18.50;99.90
18260;DHT22;9256;52.236;5.712;2023-07-20T07:52:26;18.60;99.90
18260;DHT22;9256;52.236;5.712;2023-07-20T07:54:53;18.60;99.90
18260;DHT22;9256;52.236;5.712;2023-07-20T07:57:20;18.70;99.90
18260;DHT22;9256;52.236;5.712;2023-07-20T07:59:48;18.70;99.90
18260;DHT22;9256;52.236;5.712;2023-07-20T08:02:15;17.90;99.90
18260;DHT22;9256;52.236;5.712;2023-07-20T08:04:42;18.50;99.90
18260;DHT22;9256;52.236;5.712;2023-07-20T08:07:09;19.00;99.90
18260;DHT22;9256;52.236;5.712;2023-07-20T08:09:36;19.10;99.90
18260;DHT22;9256;52.236;5.712;2023-07-20T08:12:04;19.30;99.90
18260;DHT22;9256;52.236;5.712;2023-07-20T08:14:31;19.70;99.90
18260;DHT22;9256;52.236;5.712;2023-07-20T08:16:59;20.00;99.90
18260;DHT22;9256;52.236;5.712;2023-07-20T08:19:26;20.10;99.90
18260;DHT22;9256;52.236;5.712;2023-07-20T08:21:53;20.20;99.90
18260;DHT22;9256;52.236;5.712;2023-07-20T08:24:20;20.20;99.90
18260;DHT22;9256;52.236;5.712;2023-07-20T08:26:47;19.60;99.90
18260;DHT22;9256;52.236;5.712;2023-07-20T08:29:14;19.40;99.90
18260;DHT22;9256;52.236;5.712;2023-07-20T08:31:41;19.20;99.90
18260;DHT22;9256;52.236;5.712;2023-07-20T08:34:10;19.30;99.90
18260;DHT22;9256;52.236;5.712;2023-07-20T08:36:36;19.10;99.90
18260;DHT22;9256;52.236;5.712;2023-07-20T08:39:03;19.50;99.90
18260;DHT22;9256;52.236;5.712;2023-07-20T08:41:30;19.90;99.90
18260;DHT22;9256;52.236;5.712;2023-07-20T08:43:58;20.20;99.90
18260;DHT22;9256;52.236;5.712;2023-07-20T08:46:27;20.60;99.90
18260;DHT22;9256;52.236;5.712;2023-07-20T08:48:56;20.90;99.90
18260;DHT22;9256;52.236;5.712;2023-07-20T08:51:26;20.30;99.90
18260;DHT22;9256;52.236;5.712;2023-07-20T08:53:53;20.50;99.90
18260;DHT22;9256;52.236;5.712;2023-07-20T08:56:20;20.70;99.90
18260;DHT22;9256;52.236;5.712;2023-07-20T08:58:48;20.60;99.90
18260;DHT22;9256;52.236;5.712;2023-07-20T09:01:17;20.90;99.90
18260;DHT22;9256;52.236;5.712;2023-07-20T09:03:45;21.20;99.90
18260;DHT22;9256;52.236;5.712;2023-07-20T09:06:12;21.40;99.90
18260;DHT22;9256;52.236;5.712;2023-07-20T09:08:41;21.50;99.90
18260;DHT22;9256;52.236;5.712;2023-07-20T09:11:11;22.00;99.90
18260;DHT22;9256;52.236;5.712;2023-07-20T09:13:38;22.40;99.90
18260;DHT22;9256;52.236;5.712;2023-07-20T09:16:05;22.40;99.90
18260;DHT22;9256;52.236;5.712;2023-07-20T09:18:32;22.40;99.90
18260;DHT22;9256;52.236;5.712;2023-07-20T09:21:02;21.90;99.90
18260;DHT22;9256;52.236;5.712;2023-07-20T09:23:32;21.20;99.90
18260;DHT22;9256;52.236;5.712;2023-07-20T09:26:09;20.40;99.90
18260;DHT22;9256;52.236;5.712;2023-07-20T09:28:41;20.40;99.90
18260;DHT22;9256;52.236;5.712;2023-07-20T09:31:15;20.60;99.90
18260;DHT22;9256;52.236;5.712;2023-07-20T09:33:43;21.00;99.90
18260;DHT22;9256;52.236;5.712;2023-07-20T09:36:10;21.60;99.90
18260;DHT22;9256;52.236;5.712;2023-07-20T09:38:37;22.10;99.90
18260;DHT22;9256;52.236;5.712;2023-07-20T09:41:06;22.10;99.90
18260;DHT22;9256;52.236;5.712;2023-07-20T09:43:34;22.00;99.90
18260;DHT22;9256;52.236;5.712;2023-07-20T09:46:01;22.30;99.90
18260;DHT22;9256;52.236;5.712;2023-07-20T09:48:29;22.40;99.90
18260;DHT22;9256;52.236;5.712;2023-07-20T09:50:57;21.90;99.90
18260;DHT22;9256;52.236;5.712;2023-07-20T09:53:25;21.70;99.90
18260;DHT22;9256;52.236;5.712;2023-07-20T09:55:52;22.30;99.90
18260;DHT22;9256;52.236;5.712;2023-07-20T09:58:21;22.80;99.90
18260;DHT22;9256;52.236;5.712;2023-07-20T10:00:51;22.70;99.90
18260;DHT22;9256;52.236;5.712;2023-07-20T10:03:19;22.00;99.90
18260;DHT22;9256;52.236;5.712;2023-07-20T10:05:51;21.50;99.90
18260;DHT22;9256;52.236;5.712;2023-07-20T10:08:19;21.20;99.90
18260;DHT22;9256;52.236;5.712;2023-07-20T10:10:47;20.80;99.90
18260;DHT22;9256;52.236;5.712;2023-07-20T10:13:17;20.40;99.90
18260;DHT22;9256;52.236;5.712;2023-07-20T10:15:50;20.70;99.90
18260;DHT22;9256;52.236;5.712;2023-07-20T10:18:26;21.50;99.90
18260;DHT22;9256;52.236;5.712;2023-07-20T10:20:55;22.60;99.90
18260;DHT22;9256;52.236;5.712;2023-07-20T10:23:23;23.00;99.90
18260;DHT22;9256;52.236;5.712;2023-07-20T10:25:50;23.10;99.90
18260;DHT22;9256;52.236;5.712;2023-07-20T10:28:17;22.80;99.90
18260;DHT22;9256;52.236;5.712;2023-07-20T10:30:44;22.10;99.90
18260;DHT22;9256;52.236;5.712;2023-07-20T10:33:13;21.60;99.90
18260;DHT22;9256;52.236;5.712;2023-07-20T10:35:55;21.30;99.90
18260;DHT22;9256;52.236;5.712;2023-07-20T10:38:40;21.00;99.90
18260;DHT22;9256;52.236;5.712;2023-07-20T10:41:17;20.70;99.90
18260;DHT22;9256;52.236;5.712;2023-07-20T10:43:45;20.20;99.90
18260;DHT22;9256;52.236;5.712;2023-07-20T10:46:12;20.20;99.90
18260;DHT22;9256;52.236;5.712;2023-07-20T10:49:02;20.70;99.90
18260;DHT22;9256;52.236;5.712;2023-07-20T10:51:29;21.60;99.90
18260;DHT22;9256;52.236;5.712;2023-07-20T10:53:57;22.50;99.90
18260;DHT22;9256;52.236;5.712;2023-07-20T10:56:26;23.00;99.90
18260;DHT22;9256;52.236;5.712;2023-07-20T10:58:58;23.00;99.90
18260;DHT22;9256;52.236;5.712;2023-07-20T11:01:28;23.40;99.90
18260;DHT22;9256;52.236;5.712;2023-07-20T11:03:58;23.80;99.90
18260;DHT22;9256;52.236;5.712;2023-07-20T11:06:33;24.00;99.90
18260;DHT22;9256;52.236;5.712;2023-07-20T11:09:08;23.80;99.90
18260;DHT22;9256;52.236;5.712;2023-07-20T11:11:37;23.80;99.90
18260;DHT22;9256;52.236;5.712;2023-07-20T11:14:06;24.00;99.90
18260;DHT22;9256;52.236;5.712;2023-07-20T11:16:41;24.50;99.90
18260;DHT22;9256;52.236;5.712;2023-07-20T11:19:16;24.70;99.90
18260;DHT22;9256;52.236;5.712;2023-07-20T11:21:46;24.50;99.90
18260;DHT22;9256;52.236;5.712;2023-07-20T11:24:13;24.60;99.90
18260;DHT22;9256;52.236;5.712;2023-07-20T11:26:41;24.50;99.90
18260;DHT22;9256;52.236;5.712;2023-07-20T11:29:07;24.30;99.90
18260;DHT22;9256;52.236;5.712;2023-07-20T11:31:38;24.60;99.90
18260;DHT22;9256;52.236;5.712;2023-07-20T11:34:06;24.60;99.90
18260;DHT22;9256;52.236;5.712;2023-07-20T11:36:34;24.00;99.90
18260;DHT22;9256;52.236;5.712;2023-07-20T11:39:02;23.40;99.90
18260;DHT22;9256;52.236;5.712;2023-07-20T11:41:31;23.30;99.90
18260;DHT22;9256;52.236;5.712;2023-07-20T11:43:58;23.10;99.90
18260;DHT22;9256;52.236;5.712;2023-07-20T11:46:25;23.20;99.90
18260;DHT22;9256;52.236;5.712;2023-07-20T11:48:57;23.80;99.90
18260;DHT22;9256;52.236;5.712;2023-07-20T11:51:25;24.50;99.90
18260;DHT22;9256;52.236;5.712;2023-07-20T11:53:53;24.90;99.90
18260;DHT22;9256;52.236;5.712;2023-07-20T11:56:22;25.20;99.90
18260;DHT22;9256;52.236;5.712;2023-07-20T11:58:50;25.50;99.90
18260;DHT22;9256;52.236;5.712;2023-07-20T12:01:17;25.70;99.90
18260;DHT22;9256;52.236;5.712;2023-07-20T12:03:47;25.80;99.90
18260;DHT22;9256;52.236;5.712;2023-07-20T12:06:14;25.30;99.90
18260;DHT22;9256;52.236;5.712;2023-07-20T12:08:42;25.20;99.90
18260;DHT22;9256;52.236;5.712;2023-07-20T12:11:10;24.90;99.90
18260;DHT22;9256;52.236;5.712;2023-07-20T12:13:41;25.10;99.90
18260;DHT22;9256;52.236;5.712;2023-07-20T12:16:13;24.90;99.90
18260;DHT22;9256;52.236;5.712;2023-07-20T12:18:40;24.70;99.90
18260;DHT22;9256;52.236;5.712;2023-07-20T12:21:07;24.60;99.90
18260;DHT22;9256;52.236;5.712;2023-07-20T12:23:38;24.40;99.90
18260;DHT22;9256;52.236;5.712;2023-07-20T12:26:09;24.60;99.90
18260;DHT22;9256;52.236;5.712;2023-07-20T12:28:40;24.70;99.90
18260;DHT22;9256;52.236;5.712;2023-07-20T12:31:08;24.80;99.90
18260;DHT22;9256;52.236;5.712;2023-07-20T12:33:35;24.80;99.90
18260;DHT22;9256;52.236;5.712;2023-07-20T12:36:02;24.70;99.90
18260;DHT22;9256;52.236;5.712;2023-07-20T12:38:29;24.60;99.90
18260;DHT22;9256;52.236;5.712;2023-07-20T12:40:57;24.80;99.90
18260;DHT22;9256;52.236;5.712;2023-07-20T12:43:25;25.10;99.90
18260;DHT22;9256;52.236;5.712;2023-07-20T12:45:54;24.60;99.90
18260;DHT22;9256;52.236;5.712;2023-07-20T12:48:21;24.90;99.90
18260;DHT22;9256;52.236;5.712;2023-07-20T12:50:48;25.40;99.90
18260;DHT22;9256;52.236;5.712;2023-07-20T12:53:16;25.00;99.90
18260;DHT22;9256;52.236;5.712;2023-07-20T12:55:43;25.10;99.90
18260;DHT22;9256;52.236;5.712;2023-07-20T12:58:11;24.70;99.90
18260;DHT22;9256;52.236;5.712;2023-07-20T13:00:38;24.30;99.90
18260;DHT22;9256;52.236;5.712;2023-07-20T13:03:07;24.60;99.90
18260;DHT22;9256;52.236;5.712;2023-07-20T13:05:34;26.10;99.90
18260;DHT22;9256;52.236;5.712;2023-07-20T13:08:01;27.50;99.90
18260;DHT22;9256;52.236;5.712;2023-07-20T13:10:29;28.40;99.90
18260;DHT22;9256;52.236;5.712;2023-07-20T13:12:56;28.80;99.90
18260;DHT22;9256;52.236;5.712;2023-07-20T13:15:28;28.80;99.90
18260;DHT22;9256;52.236;5.712;2023-07-20T13:17:56;28.40;99.90
18260;DHT22;9256;52.236;5.712;2023-07-20T13:20:25;27.60;99.90
18260;DHT22;9256;52.236;5.712;2023-07-20T13:22:52;28.30;99.90
18260;DHT22;9256;52.236;5.712;2023-07-20T13:25:19;28.10;99.90
18260;DHT22;9256;52.236;5.712;2023-07-20T13:27:46;26.80;99.90
18260;DHT22;9256;52.236;5.712;2023-07-20T13:30:13;26.30;99.90
18260;DHT22;9256;52.236;5.712;2023-07-20T13:32:42;25.80;99.90
18260;DHT22;9256;52.236;5.712;2023-07-20T13:35:09;26.70;99.90
18260;DHT22;9256;52.236;5.712;2023-07-20T13:37:38;27.00;99.90
18260;DHT22;9256;52.236;5.712;2023-07-20T13:40:06;26.50;99.90
18260;DHT22;9256;52.236;5.712;2023-07-20T13:42:34;25.00;99.90
18260;DHT22;9256;52.236;5.712;2023-07-20T13:45:01;24.20;99.90
18260;DHT22;9256;52.236;5.712;2023-07-20T13:47:28;24.20;99.90
18260;DHT22;9256;52.236;5.712;2023-07-20T13:49:55;24.00;99.90
18260;DHT22;9256;52.236;5.712;2023-07-20T13:52:22;24.20;99.90
18260;DHT22;9256;52.236;5.712;2023-07-20T13:54:51;25.60;99.90
18260;DHT22;9256;52.236;5.712;2023-07-20T13:57:18;26.00;99.90
18260;DHT22;9256;52.236;5.712;2023-07-20T13:59:45;25.70;99.90
18260;DHT22;9256;52.236;5.712;2023-07-20T14:02:14;26.30;99.90
18260;DHT22;9256;52.236;5.712;2023-07-20T14:04:41;26.80;99.90
18260;DHT22;9256;52.236;5.712;2023-07-20T14:07:08;28.20;99.90
18260;DHT22;9256;52.236;5.712;2023-07-20T14:09:36;29.20;99.90
18260;DHT22;9256;52.236;5.712;2023-07-20T14:12:06;29.50;99.90
18260;DHT22;9256;52.236;5.712;2023-07-20T14:14:34;29.80;99.90
18260;DHT22;9256;52.236;5.712;2023-07-20T14:17:02;30.50;99.90
18260;DHT22;9256;52.236;5.712;2023-07-20T14:19:29;29.40;99.90
18260;DHT22;9256;52.236;5.712;2023-07-20T14:21:55;28.20;99.90
18260;DHT22;9256;52.236;5.712;2023-07-20T14:24:25;27.00;99.90
18260;DHT22;9256;52.236;5.712;2023-07-20T14:26:52;25.90;99.90
18260;DHT22;9256;52.236;5.712;2023-07-20T14:29:21;25.30;99.90
18260;DHT22;9256;52.236;5.712;2023-07-20T14:31:48;25.10;99.90
18260;DHT22;9256;52.236;5.712;2023-07-20T14:34:16;24.80;99.90
18260;DHT22;9256;52.236;5.712;2023-07-20T14:36:44;24.90;99.90
18260;DHT22;9256;52.236;5.712;2023-07-20T14:39:11;25.00;99.90
18260;DHT22;9256;52.236;5.712;2023-07-20T14:41:38;25.80;99.90
18260;DHT22;9256;52.236;5.712;2023-07-20T14:44:05;26.30;99.90
18260;DHT22;9256;52.236;5.712;2023-07-20T14:46:33;26.20;99.90
18260;DHT22;9256;52.236;5.712;2023-07-20T14:49:00;25.80;99.90
18260;DHT22;9256;52.236;5.712;2023-07-20T14:51:28;25.70;99.90
18260;DHT22;9256;52.236;5.712;2023-07-20T14:53:58;25.70;99.90
18260;DHT22;9256;52.236;5.712;2023-07-20T14:56:25;25.50;99.90
18260;DHT22;9256;52.236;5.712;2023-07-20T14:58:53;25.10;99.90
18260;DHT22;9256;52.236;5.712;2023-07-20T15:01:20;25.10;99.90
18260;DHT22;9256;52.236;5.712;2023-07-20T15:03:48;25.10;99.90
18260;DHT22;9256;52.236;5.712;2023-07-20T15:06:17;24.90;99.90
18260;DHT22;9256;52.236;5.712;2023-07-20T15:08:44;25.00;99.90
18260;DHT22;9256;52.236;5.712;2023-07-20T15:11:11;24.90;99.90
18260;DHT22;9256;52.236;5.712;2023-07-20T15:13:38;24.70;99.90
18260;DHT22;9256;52.236;5.712;2023-07-20T15:16:07;24.40;99.90
18260;DHT22;9256;52.236;5.712;2023-07-20T15:18:35;24.00;99.90
18260;DHT22;9256;52.236;5.712;2023-07-20T15:21:03;23.70;99.90
18260;DHT22;9256;52.236;5.712;2023-07-20T15:23:30;23.60;99.90
18260;DHT22;9256;52.236;5.712;2023-07-20T15:25:57;23.70;99.90
18260;DHT22;9256;52.236;5.712;2023-07-20T15:28:24;24.00;99.90
18260;DHT22;9256;52.236;5.712;2023-07-20T15:30:59;23.90;99.90
18260;DHT22;9256;52.236;5.712;2023-07-20T15:33:26;24.20;99.90
18260;DHT22;9256;52.236;5.712;2023-07-20T15:35:53;24.50;99.90
18260;DHT22;9256;52.236;5.712;2023-07-20T15:38:21;24.50;99.90
18260;DHT22;9256;52.236;5.712;2023-07-20T15:40:48;24.90;99.90
18260;DHT22;9256;52.236;5.712;2023-07-20T15:43:15;25.20;99.90
18260;DHT22;9256;52.236;5.712;2023-07-20T15:45:46;25.80;99.90
18260;DHT22;9256;52.236;5.712;2023-07-20T15:48:14;25.50;99.90
18260;DHT22;9256;52.236;5.712;2023-07-20T15:50:41;24.90;99.90